Time;durP1;ratioP1;P1;durP2;ratioP2;P2;SDS_P1;SDS_P2;PMS_P1;PMS_P2;Temp;Humidity;BMP_temperature;BMP_pressure;BME280_temperature;BME280_humidity;BME280_pressure;Samples;Min_cycle;Max_cycle;Signal;HPM_P1;HPM_P2
2023/03/18 00:00:22;;;;;;;21.40;10.00;;;;;;;41.77;37.26;100827.06;6184196;23;20873;-79
2023/03/18 00:02:48;;;;;;;16.13;9.90;;;;;;;41.49;37.39;100826.75;6183770;23;20390;-80
2023/03/18 00:05:14;;;;;;;15.10;7.83;;;;;;;41.33;37.60;100821.94;6183985;23;20395;-80
2023/03/18 00:07:41;;;;;;;17.27;7.83;;;;;;;41.77;36.92;100827.84;6183810;23;20391;-79
2023/03/18 00:10:09;;;;;;;17.90;8.60;;;;;;;42.09;36.71;100830.91;6183616;23;20912;-79
2023/03/18 00:12:37;;;;;;;18.00;9.70;;;;;;;41.61;36.93;100829.56;6183820;23;20385;-80
2023/03/18 00:15:07;;;;;;;17.00;7.77;;;;;;;41.66;37.18;100825.84;6183705;23;20420;-79
2023/03/18 00:17:33;;;;;;;19.37;7.87;;;;;;;41.72;37.48;100819.84;6183289;23;20492;-80
2023/03/18 00:20:04;;;;;;;21.80;7.90;;;;;;;41.56;37.87;100811.50;6183612;23;20857;-80
2023/03/18 00:22:33;;;;;;;21.90;9.30;;;;;;;41.75;37.43;100813.00;6183781;23;20450;-80
2023/03/18 00:24:59;;;;;;;20.10;7.90;;;;;;;41.85;37.12;100799.72;6183474;23;20530;-79
2023/03/18 00:27:26;;;;;;;26.23;8.17;;;;;;;41.67;37.42;100800.19;6183557;23;20381;-79
2023/03/18 00:29:52;;;;;;;18.63;9.10;;;;;;;41.56;36.71;100781.56;6183588;23;20528;-81
2023/03/18 00:32:18;;;;;;;21.00;7.60;;;;;;;41.82;35.82;100756.81;6183714;23;20394;-79
2023/03/18 00:34:45;;;;;;;18.80;7.70;;;;;;;41.88;36.08;100759.34;6185329;23;20408;-80
2023/03/18 00:37:17;;;;;;;17.70;7.53;;;;;;;41.97;36.56;100746.41;6185377;23;20384;-80
2023/03/18 00:39:45;;;;;;;15.70;8.60;;;;;;;41.50;36.53;100750.22;6183474;23;20861;-79
2023/03/18 00:42:12;;;;;;;13.30;7.57;;;;;;;41.76;36.99;100746.47;6183416;23;20507;-79
2023/03/18 00:44:38;;;;;;;24.17;11.07;;;;;;;41.72;36.56;100748.25;6183415;23;20884;-79
2023/03/18 00:47:05;;;;;;;18.83;8.80;;;;;;;41.91;36.42;100751.28;6183600;23;20390;-79
2023/03/18 00:49:32;;;;;;;15.00;6.73;;;;;;;41.85;36.71;100742.50;6183504;23;20416;-79
2023/03/18 00:51:58;;;;;;;16.90;7.50;;;;;;;41.82;36.83;100748.66;6183974;23;20388;-81
2023/03/18 00:54:23;;;;;;;20.37;9.03;;;;;;;41.83;36.91;100746.72;6185158;23;20412;-81
2023/03/18 00:56:50;;;;;;;29.53;10.43;;;;;;;41.90;36.86;100743.44;6183063;23;20384;-79
2023/03/18 00:59:15;;;;;;;22.50;8.30;;;;;;;41.95;36.58;100741.31;6185246;23;20379;-79
2023/03/18 01:01:42;;;;;;;21.97;9.17;;;;;;;41.79;37.25;100746.59;6183239;23;20384;-79
2023/03/18 01:04:08;;;;;;;14.77;7.20;;;;;;;41.79;37.36;100749.31;6182900;23;20743;-80
2023/03/18 01:06:36;;;;;;;12.17;7.43;;;;;;;42.00;36.16;100754.72;6183475;23;20392;-80
2023/03/18 01:09:04;;;;;;;23.23;9.53;;;;;;;41.67;37.13;100745.72;6183253;23;20422;-80
2023/03/18 01:11:32;;;;;;;24.67;7.87;;;;;;;41.55;37.46;100727.41;6183232;23;20392;-80
2023/03/18 01:13:58;;;;;;;17.30;8.53;;;;;;;41.08;37.35;100714.03;6183046;23;20991;-79
2023/03/18 01:16:24;;;;;;;15.03;6.70;;;;;;;41.15;37.54;100730.59;6184143;23;20476;-78
2023/03/18 01:18:51;;;;;;;16.00;8.13;;;;;;;41.26;37.83;100741.91;6183372;23;20474;-80
2023/03/18 01:21:17;;;;;;;24.60;9.03;;;;;;;41.39;37.89;100746.31;6183521;23;20732;-80
2023/03/18 01:23:43;;;;;;;20.20;9.60;;;;;;;41.54;37.35;100751.13;6182882;23;20408;-81
2023/03/18 01:26:09;;;;;;;17.27;8.67;;;;;;;41.51;37.58;100742.84;6183079;23;20860;-79
2023/03/18 01:28:36;;;;;;;29.30;7.93;;;;;;;41.65;37.65;100761.59;6183132;23;20180;-80
2023/03/18 01:31:02;;;;;;;19.03;8.40;;;;;;;41.82;37.30;100767.72;6183115;23;20853;-79
2023/03/18 01:33:29;;;;;;;18.53;8.20;;;;;;;41.62;36.88;100773.97;6182943;23;20445;-78
2023/03/18 01:36:04;;;;;;;16.00;8.53;;;;;;;41.56;37.32;100759.78;6183362;23;20885;-80
2023/03/18 01:38:30;;;;;;;28.97;10.23;;;;;;;41.64;36.48;100736.31;6183421;23;20796;-80
2023/03/18 01:40:59;;;;;;;18.87;9.50;;;;;;;41.84;36.54;100768.16;6183304;23;20392;-80
2023/03/18 01:43:37;;;;;;;19.23;8.20;;;;;;;41.55;36.92;100751.91;6211068;23;20438;-79
2023/03/18 01:46:37;;;;;;;16.53;7.43;;;;;;;41.50;36.70;100773.94;6187921;23;20858;-81
2023/03/18 01:49:09;;;;;;;15.97;8.10;;;;;;;41.58;36.61;100778.50;6188013;23;20481;-79
2023/03/18 01:51:37;;;;;;;16.30;9.90;;;;;;;41.76;36.75;100787.34;6188292;23;20415;-79
2023/03/18 01:54:05;;;;;;;24.60;8.40;;;;;;;41.97;35.89;100771.72;6187952;23;20434;-81
2023/03/18 01:56:35;;;;;;;20.10;8.60;;;;;;;41.92;36.06;100780.09;6187901;23;20407;-78
2023/03/18 01:59:02;;;;;;;46.13;9.77;;;;;;;42.04;35.70;100771.97;6187912;23;20418;-79
2023/03/18 02:01:32;;;;;;;24.27;8.13;;;;;;;42.11;35.68;100782.31;6187941;23;20380;-79
2023/03/18 02:03:59;;;;;;;13.97;7.50;;;;;;;41.68;36.15;100759.03;6187767;23;20411;-79
2023/03/18 02:06:26;;;;;;;20.73;7.53;;;;;;;41.68;36.29;100753.56;6188330;23;20387;-79
2023/03/18 02:08:54;;;;;;;16.63;7.53;;;;;;;41.76;36.29;100739.09;6189158;23;20411;-81
2023/03/18 02:11:22;;;;;;;10.47;7.47;;;;;;;41.85;35.95;100734.34;6190095;23;20383;-80
2023/03/18 02:13:48;;;;;;;22.33;8.50;;;;;;;41.93;36.45;100742.75;6189541;23;20526;-79
2023/03/18 02:16:42;;;;;;;24.63;8.40;;;;;;;41.51;36.22;100742.84;6190041;23;20454;-79
2023/03/18 02:19:38;;;;;;;19.60;9.57;;;;;;;41.64;36.01;100735.50;6214706;23;20447;-79
2023/03/18 02:22:24;;;;;;;20.27;7.37;;;;;;;41.73;35.85;100736.22;6189731;23;20395;-79
2023/03/18 02:25:08;;;;;;;19.40;8.53;;;;;;;41.82;35.74;100742.41;6189696;23;20386;-79
2023/03/18 02:27:39;;;;;;;14.90;7.57;;;;;;;41.77;35.63;100735.25;6189778;23;20391;-79
2023/03/18 02:30:16;;;;;;;17.23;8.07;;;;;;;42.04;35.33;100749.38;6189665;23;20421;-79
2023/03/18 02:32:44;;;;;;;17.73;9.27;;;;;;;42.07;35.13;100748.72;6189740;23;20390;-79
2023/03/18 02:35:11;;;;;;;15.80;10.20;;;;;;;42.16;35.18;100765.78;6214536;23;20449;-79
2023/03/18 02:37:38;;;;;;;15.77;10.13;;;;;;;42.01;35.56;100777.31;6189778;23;20383;-79
2023/03/18 02:40:32;;;;;;;21.03;10.37;;;;;;;42.17;35.53;100777.47;6189276;23;20387;-79
2023/03/18 02:43:31;;;;;;;23.10;9.20;;;;;;;41.99;35.88;100791.28;6189321;23;20655;-79
2023/03/18 02:46:16;;;;;;;18.87;7.77;;;;;;;41.95;35.83;100792.28;6189511;23;20403;-80
2023/03/18 02:48:45;;;;;;;19.60;9.00;;;;;;;42.15;35.33;100788.69;6189490;23;20451;-80
2023/03/18 02:51:13;;;;;;;14.67;7.20;;;;;;;42.23;34.79;100789.75;6189395;23;20442;-79
2023/03/18 02:53:40;;;;;;;21.60;9.83;;;;;;;42.47;34.39;100802.63;6216715;23;20414;-79
2023/03/18 02:56:07;;;;;;;11.10;7.00;;;;;;;42.21;34.41;100827.47;6189464;23;20383;-81
2023/03/18 02:58:34;;;;;;;25.93;9.20;;;;;;;42.14;31.29;100822.53;6188975;23;20963;-79
2023/03/18 03:01:00;;;;;;;20.20;6.80;;;;;;;41.09;31.49;100827.16;6189028;23;20419;-79
2023/03/18 03:03:26;;;;;;;16.90;8.57;;;;;;;40.20;32.50;100823.44;6189618;23;20438;-79
2023/03/18 03:05:52;;;;;;;14.63;6.07;;;;;;;40.19;32.28;100821.84;6189175;23;20403;-79
2023/03/18 03:08:19;;;;;;;18.07;6.13;;;;;;;40.95;32.01;100851.09;6189336;23;20498;-79
2023/03/18 03:10:45;;;;;;;12.13;5.47;;;;;;;39.75;33.35;100827.31;6189164;23;20388;-79
2023/03/18 03:13:11;;;;;;;12.33;6.60;;;;;;;39.64;34.10;100845.03;6189109;23;20387;-80
2023/03/18 03:15:38;;;;;;;12.90;5.37;;;;;;;39.00;34.92;100833.84;6189344;23;20383;-80
2023/03/18 03:18:05;;;;;;;16.50;5.33;;;;;;;38.54;36.35;100802.50;6188927;23;20384;-81
2023/03/18 03:20:34;;;;;;;20.13;6.30;;;;;;;39.15;35.43;100798.13;6214049;23;20387;-81
2023/03/18 03:23:02;;;;;;;12.87;7.00;;;;;;;38.59;36.64;100799.66;6188686;23;20381;-79
2023/03/18 03:25:28;;;;;;;15.00;8.00;;;;;;;38.48;36.31;100800.25;6189068;23;20878;-78
2023/03/18 03:27:54;;;;;;;12.27;7.60;;;;;;;38.33;36.41;100812.28;6215660;23;20926;-79
2023/03/18 03:30:22;;;;;;;17.87;7.20;;;;;;;39.14;35.50;100810.09;6189077;23;20986;-81
2023/03/18 03:32:48;;;;;;;17.47;7.93;;;;;;;39.55;34.85;100819.78;6189167;23;20386;-79
2023/03/18 03:35:17;;;;;;;20.73;9.43;;;;;;;39.49;35.21;100818.31;6188807;23;20433;-79
2023/03/18 03:37:43;;;;;;;29.00;8.10;;;;;;;39.43;34.31;100795.16;6214361;23;20396;-79
2023/03/18 03:40:12;;;;;;;14.87;8.27;;;;;;;39.21;34.65;100826.72;6188968;23;20380;-79
2023/03/18 04:02:18;;;;;;;35.13;12.23;;;;;;;39.38;34.61;100709.28;5153695;27;20341;-81
2023/03/18 04:04:45;;;;;;;43.93;14.50;;;;;;;39.70;34.32;100731.63;5141402;27;20431;-80
2023/03/18 04:07:13;;;;;;;29.30;11.50;;;;;;;39.86;34.25;100761.81;5143066;27;20434;-80
2023/03/18 04:09:40;;;;;;;46.13;12.50;;;;;;;40.20;34.15;100778.03;5149687;27;20421;-80
2023/03/18 04:12:06;;;;;;;28.30;11.80;;;;;;;40.42;33.94;100785.19;5147537;27;20464;-80
2023/03/18 04:14:33;;;;;;;26.43;9.83;;;;;;;40.42;33.57;100758.00;5149129;27;20422;-80
2023/03/18 04:16:59;;;;;;;24.10;9.77;;;;;;;40.41;33.34;100725.72;5148734;27;20878;-80
2023/03/18 04:19:26;;;;;;;17.60;9.03;;;;;;;40.35;33.48;100716.16;5146988;27;20422;-80
2023/03/18 04:21:53;;;;;;;20.87;9.67;;;;;;;40.43;33.46;100726.97;5148556;27;20505;-81
2023/03/18 04:24:20;;;;;;;23.23;6.70;;;;;;;40.44;32.92;100735.91;5148652;27;20799;-81
2023/03/18 04:26:46;;;;;;;23.13;9.20;;;;;;;40.48;32.97;100755.94;5135868;27;20415;-81
2023/03/18 04:29:12;;;;;;;25.17;8.67;;;;;;;40.52;32.34;100768.56;5128815;27;20449;-80
2023/03/18 04:31:38;;;;;;;26.87;9.23;;;;;;;40.58;32.07;100787.38;5128546;27;20822;-81
2023/03/18 04:34:05;;;;;;;19.67;10.93;;;;;;;40.54;32.01;100792.69;5134642;27;20509;-81
2023/03/18 04:36:30;;;;;;;17.47;7.20;;;;;;;40.58;32.80;100790.09;5128800;27;20410;-80
2023/03/18 04:38:57;;;;;;;17.43;9.63;;;;;;;40.54;32.67;100765.50;5129177;27;20450;-80
2023/03/18 04:41:23;;;;;;;22.73;10.07;;;;;;;40.61;32.41;100765.78;5128774;27;20447;-80
2023/03/18 04:43:49;;;;;;;25.43;7.50;;;;;;;40.57;32.49;100770.28;5139988;27;20487;-80
2023/03/18 04:46:15;;;;;;;18.47;7.40;;;;;;;40.50;32.40;100778.13;5138487;27;20891;-81
2023/03/18 04:48:41;;;;;;;16.37;7.33;;;;;;;40.62;32.62;100782.88;5148650;27;20424;-82
2023/03/18 04:51:08;;;;;;;11.80;7.00;;;;;;;40.59;32.25;100778.91;5148427;27;20807;-81
2023/03/18 04:53:35;;;;;;;15.47;7.17;;;;;;;40.71;31.71;100775.50;5145963;27;20479;-81
2023/03/18 04:56:01;;;;;;;15.33;6.33;;;;;;;40.71;31.43;100775.50;5136604;27;20426;-80
2023/03/18 04:58:27;;;;;;;13.33;6.40;;;;;;;40.73;31.88;100782.19;5132820;27;20467;-80
2023/03/18 05:00:53;;;;;;;19.37;6.40;;;;;;;40.75;32.39;100790.81;5119498;28;20552;-80
2023/03/18 05:03:19;;;;;;;15.43;5.43;;;;;;;40.83;31.79;100782.97;5093375;28;20511;-80
2023/03/18 05:05:46;;;;;;;12.90;5.80;;;;;;;40.75;31.64;100803.63;5094155;28;20436;-80
2023/03/18 05:08:12;;;;;;;17.93;6.73;;;;;;;40.79;31.15;100799.13;5102867;27;20484;-80
2023/03/18 05:10:39;;;;;;;15.47;7.73;;;;;;;40.81;30.75;100803.09;5095058;28;20417;-80
2023/03/18 05:13:05;;;;;;;13.57;5.80;;;;;;;40.88;30.85;100802.59;5109420;27;20202;-80
2023/03/18 05:15:32;;;;;;;13.40;5.97;;;;;;;40.91;30.54;100815.59;5107052;27;20420;-82
2023/03/18 05:17:58;;;;;;;15.17;6.70;;;;;;;40.96;30.63;100831.72;5096793;27;20413;-82
2023/03/18 05:20:25;;;;;;;15.43;6.70;;;;;;;40.95;30.62;100846.47;5096353;27;20987;-80
2023/03/18 05:22:52;;;;;;;18.07;6.30;;;;;;;40.92;30.15;100843.59;5112396;28;20431;-80
2023/03/18 05:25:20;;;;;;;18.13;6.63;;;;;;;40.98;29.92;100847.72;5094518;28;20429;-80
2023/03/18 05:27:46;;;;;;;22.60;8.50;;;;;;;40.98;29.96;100851.22;5098668;27;21127;-80
2023/03/18 05:30:14;;;;;;;15.47;7.80;;;;;;;41.07;29.55;100856.66;5096647;27;20952;-80
2023/03/18 05:32:41;;;;;;;20.47;7.33;;;;;;;41.04;29.18;100849.91;5097704;27;20419;-80
2023/03/18 05:35:09;;;;;;;18.10;8.07;;;;;;;41.12;29.16;100850.19;5095177;28;20474;-80
2023/03/18 05:37:35;;;;;;;18.17;7.53;;;;;;;41.13;28.80;100852.59;5114671;27;20506;-80
2023/03/18 05:40:03;;;;;;;15.50;8.63;;;;;;;41.17;29.02;100869.84;5097771;27;20536;-80
2023/03/18 05:42:29;;;;;;;14.83;7.03;;;;;;;41.21;29.80;100873.53;5099976;27;20415;-80
2023/03/18 05:44:56;;;;;;;10.20;4.90;;;;;;;41.15;30.42;100877.56;5096992;27;20797;-80
2023/03/18 05:47:22;;;;;;;20.57;6.77;;;;;;;41.03;30.13;100869.31;5098334;27;20469;-80
2023/03/18 05:49:48;;;;;;;18.47;6.90;;;;;;;41.15;30.04;100883.00;5101149;27;20412;-80
2023/03/18 05:52:17;;;;;;;11.33;5.57;;;;;;;41.10;30.59;100885.91;5112241;27;20454;-80
2023/03/18 05:54:43;;;;;;;11.60;4.77;;;;;;;41.15;31.05;100893.88;5094899;28;20420;-80
2023/03/18 05:57:09;;;;;;;17.40;5.37;;;;;;;41.20;31.25;100893.72;5099404;27;20417;-80
2023/03/18 05:59:35;;;;;;;17.80;6.90;;;;;;;41.27;31.55;100887.75;5095001;27;20431;-80
2023/03/18 06:02:02;;;;;;;15.00;6.00;;;;;;;41.28;31.18;100887.41;5090497;27;20463;-80
2023/03/18 06:04:28;;;;;;;14.20;5.77;;;;;;;41.22;30.91;100885.22;5093614;27;20959;-80
2023/03/18 06:06:55;;;;;;;12.07;5.60;;;;;;;41.23;30.72;100890.31;5100778;27;20981;-81
2023/03/18 06:09:22;;;;;;;10.17;5.10;;;;;;;41.29;30.44;100894.44;5111187;27;20457;-81
2023/03/18 06:11:48;;;;;;;13.30;4.70;;;;;;;41.23;29.74;100892.25;5103989;28;20424;-80
2023/03/18 06:14:14;;;;;;;13.20;3.73;;;;;;;41.38;29.39;100896.38;5094382;28;20432;-80
2023/03/18 06:16:41;;;;;;;8.47;3.70;;;;;;;41.40;28.57;100888.66;5097465;28;20974;-80
2023/03/18 06:19:07;;;;;;;11.03;3.70;;;;;;;41.38;27.47;100901.81;5107569;27;20976;-80
2023/03/18 06:21:33;;;;;;;11.37;4.97;;;;;;;41.35;28.86;100908.69;5104792;27;20459;-80
2023/03/18 06:24:01;;;;;;;17.13;5.97;;;;;;;41.48;29.39;100906.84;5127322;27;20411;-80
2023/03/18 06:26:27;;;;;;;12.40;5.40;;;;;;;41.49;30.39;100919.34;5122612;27;20436;-80
2023/03/18 06:28:53;;;;;;;15.87;4.87;;;;;;;41.44;29.59;100925.00;5129110;27;20422;-80
2023/03/18 06:31:20;;;;;;;9.40;4.73;;;;;;;41.39;29.97;100931.44;5122783;27;20416;-80
2023/03/18 06:33:46;;;;;;;21.40;6.30;;;;;;;41.42;30.33;100936.19;5109878;27;20202;-80
2023/03/18 06:36:15;;;;;;;16.10;5.90;;;;;;;41.39;29.75;100930.63;5112776;27;20419;-80
2023/03/18 06:38:41;;;;;;;10.50;5.17;;;;;;;41.34;30.36;100937.06;5130866;27;20462;-81
2023/03/18 06:41:07;;;;;;;15.20;6.20;;;;;;;41.48;30.77;100947.69;5127942;27;20492;-80
2023/03/18 06:43:34;;;;;;;11.67;4.33;;;;;;;41.48;30.89;100947.69;5128938;27;20423;-80
2023/03/18 06:46:00;;;;;;;17.53;5.37;;;;;;;41.51;30.93;100945.13;5114328;27;20435;-80
2023/03/18 06:48:27;;;;;;;11.63;4.60;;;;;;;41.46;31.40;100960.84;5118850;27;20434;-80
2023/03/18 06:50:54;;;;;;;16.10;5.30;;;;;;;41.43;31.63;100954.13;5127195;27;20434;-79
2023/03/18 06:53:19;;;;;;;15.57;4.60;;;;;;;41.45;31.79;100957.34;5107669;27;20940;-79
2023/03/18 06:55:46;;;;;;;11.03;5.20;;;;;;;41.49;32.08;100952.81;5122437;27;20422;-80
2023/03/18 06:58:11;;;;;;;12.50;4.90;;;;;;;41.52;32.07;100959.53;5111327;28;20424;-79
2023/03/18 07:00:40;;;;;;;22.37;4.83;;;;;;;41.49;31.87;100958.25;5118203;27;20565;-79
2023/03/18 07:03:06;;;;;;;10.10;4.47;;;;;;;41.52;31.41;100957.63;5120607;27;20551;-80
2023/03/18 07:05:32;;;;;;;9.40;4.53;;;;;;;41.36;31.24;100970.19;5095739;27;20417;-80
2023/03/18 07:07:58;;;;;;;10.43;6.23;;;;;;;41.31;30.83;100960.25;5102764;27;20492;-81
2023/03/18 07:10:26;;;;;;;15.77;5.07;;;;;;;41.42;30.02;100963.44;5095649;27;20273;-80
2023/03/18 07:12:53;;;;;;;10.47;5.20;;;;;;;41.37;31.12;100960.09;5102280;28;20427;-78
2023/03/18 07:15:21;;;;;;;13.17;6.03;;;;;;;41.50;30.05;100954.44;5081367;28;20427;-81
2023/03/18 07:17:48;;;;;;;14.03;6.23;;;;;;;41.44;29.89;100949.50;5122044;27;20410;-82
2023/03/18 07:20:15;;;;;;;14.03;6.30;;;;;;;41.38;30.08;100945.38;5101838;27;20453;-83
2023/03/18 07:22:44;;;;;;;17.73;5.43;;;;;;;41.38;30.30;100942.66;5108558;27;21024;-83
2023/03/18 07:25:10;;;;;;;14.17;6.43;;;;;;;41.38;30.91;100942.66;5109464;27;20416;-85
2023/03/18 07:27:36;;;;;;;11.30;5.23;;;;;;;41.40;30.72;100951.28;5108545;27;20435;-84
2023/03/18 07:30:03;;;;;;;13.00;5.33;;;;;;;41.18;30.89;100952.31;5107969;28;20865;-81
2023/03/18 07:32:29;;;;;;;14.83;5.20;;;;;;;41.27;30.88;100956.59;5106651;28;20428;-79
2023/03/18 07:34:56;;;;;;;19.40;6.20;;;;;;;41.31;31.13;100963.00;5123062;27;20509;-85
2023/03/18 07:37:23;;;;;;;14.40;5.43;;;;;;;41.47;30.47;100976.84;5112561;27;20840;-79
2023/03/18 07:39:49;;;;;;;20.67;5.87;;;;;;;41.31;30.96;100975.78;5097419;28;20453;-79
2023/03/18 07:42:15;;;;;;;16.60;5.70;;;;;;;41.40;31.50;100983.94;5111920;27;20423;-79
2023/03/18 07:44:41;;;;;;;15.40;5.00;;;;;;;41.42;31.54;100992.56;5111648;27;20424;-81
2023/03/18 07:47:08;;;;;;;11.53;5.30;;;;;;;41.48;31.14;100994.78;5121526;27;21006;-86
2023/03/18 07:49:34;;;;;;;11.03;5.30;;;;;;;41.47;30.82;101000.56;5121744;28;20411;-80
2023/03/18 07:52:00;;;;;;;12.27;6.00;;;;;;;41.43;31.18;100997.69;5100500;28;20802;-78
2023/03/18 07:54:27;;;;;;;12.60;6.10;;;;;;;41.46;30.66;100990.81;5100649;28;20413;-81
2023/03/18 07:56:53;;;;;;;15.70;4.47;;;;;;;41.51;29.64;100998.78;5094655;28;20424;-81
2023/03/18 07:59:19;;;;;;;11.40;4.43;;;;;;;41.42;30.62;101008.91;5100920;28;20445;-79
2023/03/18 08:01:46;;;;;;;10.30;4.97;;;;;;;41.39;30.41;101006.84;5104293;28;20503;-83
2023/03/18 08:04:12;;;;;;;11.20;5.13;;;;;;;41.36;30.80;101008.28;5110097;28;20506;-81
2023/03/18 08:06:38;;;;;;;23.57;6.43;;;;;;;41.42;30.55;101003.47;5123907;28;20497;-81
2023/03/18 08:09:04;;;;;;;13.23;6.10;;;;;;;41.41;31.06;100999.16;5110896;28;20897;-80
2023/03/18 08:11:32;;;;;;;16.20;5.60;;;;;;;41.30;30.92;100987.78;5095486;28;20175;-80
2023/03/18 08:13:58;;;;;;;17.80;5.57;;;;;;;41.34;31.47;100983.34;5092487;28;20789;-80
2023/03/18 08:16:24;;;;;;;13.20;6.50;;;;;;;41.37;31.24;100984.59;5092071;28;20892;-79
2023/03/18 08:18:50;;;;;;;12.47;6.03;;;;;;;41.26;31.10;100992.31;5111335;28;20422;-79
2023/03/18 08:21:18;;;;;;;11.90;5.43;;;;;;;41.17;31.71;100992.31;5108320;28;20455;-79
2023/03/18 08:23:44;;;;;;;12.00;5.97;;;;;;;41.22;31.58;100991.34;5090792;28;20417;-80
2023/03/18 08:26:10;;;;;;;17.20;6.63;;;;;;;41.21;32.03;101001.44;5122859;28;21142;-80
2023/03/18 08:28:37;;;;;;;12.30;6.20;;;;;;;41.25;31.88;100994.25;5107645;28;20502;-80
2023/03/18 08:31:04;;;;;;;17.43;8.87;;;;;;;41.42;31.44;101000.75;5108845;28;20413;-79
2023/03/18 08:33:31;;;;;;;11.47;6.50;;;;;;;41.51;30.74;100993.34;5110932;28;20480;-80
2023/03/18 08:35:58;;;;;;;11.93;6.40;;;;;;;41.44;30.32;100991.16;5109286;28;20966;-80
2023/03/18 08:38:24;;;;;;;17.50;7.23;;;;;;;41.48;30.66;100989.34;5113596;28;20592;-80
2023/03/18 08:40:51;;;;;;;21.53;7.43;;;;;;;41.60;31.12;101002.25;5126267;27;20463;-80
2023/03/18 08:43:19;;;;;;;13.77;7.40;;;;;;;41.61;31.32;100992.94;5123617;27;20448;-80
2023/03/18 08:45:46;;;;;;;15.20;7.73;;;;;;;41.54;31.25;100981.78;5128611;27;20443;-81
2023/03/18 08:48:12;;;;;;;15.20;7.00;;;;;;;41.49;32.26;100985.50;5115420;28;20421;-81
2023/03/18 08:50:37;;;;;;;15.23;6.80;;;;;;;41.40;32.52;100986.69;5116463;27;20443;-79
2023/03/18 08:53:04;;;;;;;13.93;6.73;;;;;;;41.24;32.33;100987.16;5124883;27;20428;-80
2023/03/18 08:55:39;;;;;;;13.97;6.63;;;;;;;41.27;32.97;100980.28;5128293;27;20201;-79
2023/03/18 08:58:06;;;;;;;13.73;6.40;;;;;;;41.42;32.72;100990.66;5133341;27;20431;-79
2023/03/18 09:00:35;;;;;;;17.57;6.10;;;;;;;41.29;32.94;100987.00;5096180;27;20477;-79
2023/03/18 09:03:02;;;;;;;15.73;6.70;;;;;;;41.35;33.10;100984.94;5100295;27;20485;-80
2023/03/18 09:05:29;;;;;;;18.07;6.13;;;;;;;41.45;32.30;100991.94;5094671;28;20443;-81
2023/03/18 09:07:57;;;;;;;11.97;5.47;;;;;;;41.49;32.36;100992.84;5094749;27;20445;-81
2023/03/18 09:10:24;;;;;;;13.07;6.70;;;;;;;41.50;32.73;100997.19;5094620;28;20417;-79
2023/03/18 09:12:50;;;;;;;17.10;7.07;;;;;;;41.50;32.54;100997.19;5101352;27;20420;-81
2023/03/18 09:15:19;;;;;;;28.80;7.13;;;;;;;41.49;31.99;101007.28;5114390;27;20491;-80
2023/03/18 09:17:45;;;;;;;12.77;5.97;;;;;;;41.44;32.30;100996.59;5102348;28;20425;-80
2023/03/18 09:20:15;;;;;;;17.83;7.90;;;;;;;41.56;31.74;100996.69;5113634;28;20478;-80
2023/03/18 09:22:43;;;;;;;18.70;7.43;;;;;;;41.68;31.17;100998.72;5100801;27;20419;-79
2023/03/18 09:25:10;;;;;;;12.53;5.70;;;;;;;41.64;31.45;100989.59;5094022;28;20432;-81
2023/03/18 09:27:36;;;;;;;11.47;6.37;;;;;;;41.45;31.48;101000.91;5096180;28;20409;-80
2023/03/18 09:30:02;;;;;;;21.30;6.87;;;;;;;41.53;31.91;101015.59;5095456;27;20417;-81
2023/03/18 09:32:28;;;;;;;16.63;5.70;;;;;;;41.50;31.08;101027.16;5095846;27;20512;-81
2023/03/18 09:34:54;;;;;;;15.93;5.90;;;;;;;41.57;31.11;101024.72;5098750;27;20524;-82
2023/03/18 09:37:20;;;;;;;14.10;6.37;;;;;;;41.68;31.07;101015.06;5115001;27;20931;-82
2023/03/18 09:39:47;;;;;;;14.30;6.83;;;;;;;41.79;30.82;101010.81;5107039;27;20417;-80
2023/03/18 09:42:28;;;;;;;17.37;6.83;;;;;;;41.78;30.93;101008.44;5095839;27;20428;-80
2023/03/18 09:44:59;;;;;;;16.50;6.40;;;;;;;41.73;30.40;101003.16;5093736;28;20421;-80
2023/03/18 09:47:46;;;;;;;20.30;7.30;;;;;;;41.56;30.67;100995.91;5098365;28;20527;-80
2023/03/18 09:50:12;;;;;;;15.30;7.00;;;;;;;41.93;30.33;100999.69;5101477;27;20419;-82
2023/03/18 09:53:00;;;;;;;15.93;5.93;;;;;;;41.95;30.08;100997.44;5095025;27;20428;-82
2023/03/18 09:55:49;;;;;;;15.43;6.43;;;;;;;41.82;30.42;101003.94;5095323;27;20185;-81
2023/03/18 09:58:46;;;;;;;12.80;6.90;;;;;;;41.81;30.23;100986.00;5094911;28;20420;-83
2023/03/18 10:01:14;;;;;;;16.30;6.17;;;;;;;41.64;30.76;100992.31;5066948;28;20492;-82
2023/03/18 10:03:55;;;;;;;22.87;7.30;;;;;;;41.63;30.95;101003.53;5101634;27;20461;-82
2023/03/18 10:06:23;;;;;;;12.13;6.30;;;;;;;41.59;31.32;100987.84;5108515;27;20424;-82
2023/03/18 10:09:20;;;;;;;16.30;5.97;;;;;;;41.71;31.51;100987.13;5113207;27;20455;-80
2023/03/18 10:11:51;;;;;;;15.70;5.27;;;;;;;41.86;31.14;101005.66;5106693;27;20508;-80
2023/03/18 10:14:26;;;;;;;11.80;5.67;;;;;;;41.83;31.12;101000.09;5093297;28;20883;-80
2023/03/18 10:17:13;;;;;;;18.10;7.67;;;;;;;41.70;32.05;100988.28;5100554;27;20572;-82
2023/03/18 10:19:46;;;;;;;13.17;6.37;;;;;;;41.73;31.64;100990.31;5114058;28;20424;-82
2023/03/18 10:22:30;;;;;;;12.17;7.00;;;;;;;41.82;32.36;100988.38;5109547;28;20419;-81
2023/03/18 10:25:31;;;;;;;15.57;7.60;;;;;;;41.72;32.14;100987.94;5093833;27;20428;-81
2023/03/18 10:28:15;;;;;;;23.63;7.27;;;;;;;41.93;31.56;100990.72;5076335;28;20416;-82
2023/03/18 10:30:47;;;;;;;15.77;5.67;;;;;;;41.97;31.54;100986.19;5092391;28;20441;-81
2023/03/18 10:33:29;;;;;;;16.63;6.90;;;;;;;42.02;31.25;100992.25;5093741;28;20463;-81
2023/03/18 10:36:24;;;;;;;14.30;5.33;;;;;;;41.97;31.13;100983.47;5125192;27;20514;-82
2023/03/18 10:38:53;;;;;;;10.80;4.33;;;;;;;42.11;30.85;100987.53;5105169;27;20477;-81
2023/03/18 10:41:29;;;;;;;14.40;6.07;;;;;;;42.13;30.79;100979.81;5105552;28;20501;-81
2023/03/18 10:43:56;;;;;;;12.33;5.13;;;;;;;42.21;29.75;100978.19;5092957;28;20424;-84
2023/03/18 10:46:25;;;;;;;14.80;5.00;;;;;;;42.45;29.75;100977.50;5092445;28;20791;-84
2023/03/18 10:48:58;;;;;;;14.00;5.50;;;;;;;42.52;29.25;100976.94;5118995;27;20422;-84
2023/03/18 10:51:44;;;;;;;15.63;5.77;;;;;;;42.64;28.67;100983.28;5116816;27;20434;-85
2023/03/18 10:54:19;;;;;;;11.87;5.40;;;;;;;42.71;29.35;100974.53;5118447;27;20419;-81
2023/03/18 10:56:46;;;;;;;16.23;4.57;;;;;;;42.77;28.89;100967.72;5122276;27;20497;-81
2023/03/18 10:59:17;;;;;;;14.70;5.70;;;;;;;42.91;28.75;100967.44;5109482;27;20791;-83
2023/03/18 11:01:47;;;;;;;14.20;5.03;;;;;;;42.92;28.33;100958.09;5093243;28;20473;-85
2023/03/18 11:04:18;;;;;;;11.10;4.60;;;;;;;42.82;28.58;100958.53;5107918;28;20404;-85
2023/03/18 11:07:02;;;;;;;21.63;8.20;;;;;;;42.96;29.10;100952.75;5110079;28;20426;-83
2023/03/18 11:09:35;;;;;;;13.27;5.60;;;;;;;43.01;29.69;100944.38;5093087;27;20499;-83
2023/03/18 11:12:18;;;;;;;15.27;5.53;;;;;;;43.08;29.76;100934.47;5093914;27;20438;-84
2023/03/18 11:14:49;;;;;;;12.50;5.63;;;;;;;43.11;29.08;100925.63;5101952;27;20419;-83
2023/03/18 11:17:28;;;;;;;14.90;5.90;;;;;;;43.10;29.29;100931.44;5103646;28;20499;-83
2023/03/18 11:20:09;;;;;;;16.97;8.40;;;;;;;43.11;29.10;100927.56;5095697;27;20417;-83
2023/03/18 11:22:36;;;;;;;12.77;6.47;;;;;;;43.15;28.32;100923.78;5093789;28;21025;-87
2023/03/18 11:25:22;;;;;;;14.30;5.97;;;;;;;42.92;27.63;100904.31;5097642;28;20458;-85
2023/03/18 11:27:57;;;;;;;14.00;5.13;;;;;;;43.05;27.49;100916.06;5098197;27;20430;-85
2023/03/18 11:30:31;;;;;;;15.13;5.70;;;;;;;43.11;27.35;100905.72;5102160;27;20452;-86
2023/03/18 11:32:59;;;;;;;11.60;7.27;;;;;;;43.15;27.92;100895.69;5104477;28;20953;-88
2023/03/18 11:35:38;;;;;;;12.43;7.03;;;;;;;43.04;28.62;100903.56;5094910;28;20425;-87
2023/03/18 11:38:06;;;;;;;12.37;6.63;;;;;;;43.07;28.75;100902.88;5106344;28;20434;-86
2023/03/18 11:40:32;;;;;;;18.43;6.03;;;;;;;43.16;28.56;100903.56;5119664;27;20457;-84
2023/03/18 11:43:13;;;;;;;17.10;6.80;;;;;;;43.15;28.48;100891.03;5125305;27;20415;-86
2023/03/18 11:45:47;;;;;;;13.50;6.60;;;;;;;43.16;28.73;100891.84;5107500;27;20419;-86